Time;durP1;ratioP1;P1;durP2;ratioP2;P2;SDS_P1;SDS_P2;PMS_P1;PMS_P2;Temp;Humidity;BMP_temperature;BMP_pressure;BME280_temperature;BME280_humidity;BME280_pressure;Samples;Min_cycle;Max_cycle;Signal;HPM_P1;HPM_P2
2022/06/25 00:01:43;;;;;;;7.60;5.42;;;;;;;17.90;68.11;99607.88;1757776;80;21589;-76
2022/06/25 00:05:27;;;;;;;5.62;4.90;;;;;;;17.94;68.04;99611.77;1754059;79;21000;-75
2022/06/25 00:06:39;;;;;;;7.55;4.80;;;;;;;18.06;67.93;99600.62;1748192;80;21093;-75
2022/06/25 00:09:06;;;;;;;5.97;4.47;;;;;;;18.07;67.91;99602.78;1752252;80;21738;-73
2022/06/25 00:14:17;;;;;;;6.50;4.60;;;;;;;18.03;67.98;99611.80;1753784;80;21069;-73
2022/06/25 00:16:44;;;;;;;4.83;4.42;;;;;;;18.00;67.93;99604.69;1753620;80;21031;-73
2022/06/25 00:19:10;;;;;;;5.95;4.90;;;;;;;18.01;67.96;99608.52;1748817;80;21061;-73
2022/06/25 00:21:39;;;;;;;5.28;4.62;;;;;;;18.01;67.91;99608.52;1741592;80;21200;-74
2022/06/25 00:24:06;;;;;;;4.55;4.00;;;;;;;17.99;67.99;99605.75;1746116;80;21054;-73
2022/06/25 00:26:33;;;;;;;6.58;5.10;;;;;;;17.98;68.05;99611.66;1755547;81;21017;-74
2022/06/25 00:28:59;;;;;;;8.33;4.83;;;;;;;17.97;68.09;99609.19;1753588;80;21045;-72
2022/06/25 00:31:26;;;;;;;5.70;5.00;;;;;;;17.93;68.21;99610.67;1752400;80;21033;-74
2022/06/25 00:33:52;;;;;;;10.65;5.00;;;;;;;17.87;68.28;99613.18;1742560;80;21208;-73
2022/06/25 00:36:19;;;;;;;6.87;4.80;;;;;;;17.83;68.45;99613.29;1749079;80;21069;-74
2022/06/25 00:38:45;;;;;;;5.78;4.45;;;;;;;17.81;68.56;99610.50;1744327;80;21010;-73
2022/06/25 00:41:12;;;;;;;7.60;4.67;;;;;;;17.84;68.63;99612.27;1735393;80;21023;-73
2022/06/25 00:43:40;;;;;;;7.17;4.90;;;;;;;17.94;68.70;99612.30;1750335;80;21060;-73
2022/06/25 00:46:06;;;;;;;5.25;4.42;;;;;;;17.94;68.76;99613.64;1751071;80;21205;-74
2022/06/25 00:48:33;;;;;;;6.83;4.67;;;;;;;17.85;68.94;99613.92;1737147;80;21104;-73
2022/06/25 00:50:59;;;;;;;8.23;4.50;;;;;;;17.78;69.21;99616.33;1754980;80;21065;-71
2022/06/25 00:53:31;;;;;;;6.08;4.70;;;;;;;17.69;69.43;99621.13;1756797;80;21104;-74
2022/06/25 00:55:59;;;;;;;6.20;5.10;;;;;;;17.65;69.63;99615.89;1753695;80;21239;-73
2022/06/25 00:58:29;;;;;;;6.03;4.58;;;;;;;17.63;69.67;99616.10;1792261;77;21127;-76
2022/06/25 01:00:59;;;;;;;8.05;5.03;;;;;;;17.62;69.74;99617.69;1802947;77;21231;-74
2022/06/25 01:03:28;;;;;;;7.05;5.00;;;;;;;17.54;69.80;99621.95;1801477;77;21056;-73
2022/06/25 01:05:55;;;;;;;5.92;4.47;;;;;;;17.48;69.99;99621.80;1803792;77;21044;-72
2022/06/25 01:08:22;;;;;;;5.33;4.83;;;;;;;17.43;70.01;99623.48;1788347;77;21009;-74
2022/06/25 01:10:49;;;;;;;7.17;4.50;;;;;;;17.49;70.02;99623.42;1783183;77;21179;-72
2022/06/25 01:13:19;;;;;;;5.83;4.05;;;;;;;17.60;69.96;99623.27;1804803;77;20996;-73
2022/06/25 01:15:44;;;;;;;6.78;4.55;;;;;;;17.59;69.99;99628.32;1791744;77;21016;-74
2022/06/25 01:18:11;;;;;;;5.12;4.37;;;;;;;17.57;70.13;99630.93;1799756;77;21008;-74
2022/06/25 01:20:37;;;;;;;7.33;4.78;;;;;;;17.54;70.18;99630.85;1805963;77;21497;-73
2022/06/25 01:23:04;;;;;;;4.92;4.45;;;;;;;17.48;70.18;99626.32;1793145;77;22289;-74
2022/06/25 01:25:35;;;;;;;7.00;5.00;;;;;;;17.41;70.16;99625.03;1802597;77;20969;-76
2022/06/25 01:28:03;;;;;;;5.10;4.50;;;;;;;17.39;70.39;99626.30;1795441;77;20985;-76
2022/06/25 01:30:32;;;;;;;5.60;4.62;;;;;;;17.39;70.44;99624.95;1792288;77;21450;-78
2022/06/25 01:32:58;;;;;;;9.18;5.08;;;;;;;17.37;70.54;99626.51;1793744;78;21003;-76
2022/06/25 01:35:25;;;;;;;6.37;4.15;;;;;;;17.35;70.53;99626.42;1790988;79;21143;-74
2022/06/25 01:37:52;;;;;;;5.58;4.28;;;;;;;17.36;70.53;99629.41;1800984;77;21027;-77
2022/06/25 01:40:19;;;;;;;5.30;4.12;;;;;;;17.46;70.45;99633.28;1810386;79;21056;-78
2022/06/25 01:43:00;;;;;;;6.50;4.12;;;;;;;17.42;70.64;99636.09;1800602;77;21095;-77
2022/06/25 01:45:36;;;;;;;5.25;4.70;;;;;;;17.38;70.74;99633.51;1796139;77;21027;-76
2022/06/25 01:48:06;;;;;;;6.10;4.33;;;;;;;17.36;70.84;99638.27;1807993;79;21186;-78
2022/06/25 01:50:34;;;;;;;5.25;4.28;;;;;;;17.35;70.85;99635.30;1797971;77;20996;-78
2022/06/25 01:53:02;;;;;;;7.97;4.75;;;;;;;17.35;70.71;99640.67;1806925;77;20981;-74
2022/06/25 01:55:29;;;;;;;5.30;4.80;;;;;;;17.34;70.74;99639.00;1792231;77;21596;-77
2022/06/25 01:57:55;;;;;;;5.87;4.62;;;;;;;17.32;70.75;99641.09;1805817;77;20999;-77
2022/06/25 02:00:25;;;;;;;4.35;3.95;;;;;;;17.27;70.90;99640.92;1789772;79;21165;-77
2022/06/25 02:02:54;;;;;;;5.55;4.60;;;;;;;17.28;70.99;99639.88;1804492;78;20962;-76
2022/06/25 02:08:10;;;;;;;5.37;4.53;;;;;;;17.34;71.02;99633.64;1797059;78;21530;-78
2022/06/25 02:10:36;;;;;;;5.25;4.75;;;;;;;17.33;71.06;99633.88;1781497;77;21117;-77
2022/06/25 02:13:05;;;;;;;6.55;4.40;;;;;;;17.32;71.09;99630.88;1789618;79;21214;-77
2022/06/25 02:15:34;;;;;;;5.15;4.12;;;;;;;17.28;71.16;99631.81;1809983;79;21531;-75
2022/06/25 02:18:03;;;;;;;5.10;4.60;;;;;;;17.22;71.28;99632.16;1795618;77;21155;-76
2022/06/25 02:20:29;;;;;;;5.92;4.05;;;;;;;17.12;71.62;99635.02;1808654;79;21043;-75
2022/06/25 02:22:57;;;;;;;4.65;4.08;;;;;;;17.02;72.00;99637.63;1786649;79;21046;-76
2022/06/25 02:25:24;;;;;;;5.95;4.15;;;;;;;16.98;72.21;99637.74;1792348;78;21103;-75
2022/06/25 02:27:50;;;;;;;7.20;4.65;;;;;;;17.01;72.22;99640.52;1791874;77;21483;-75
2022/06/25 02:30:16;;;;;;;5.33;4.80;;;;;;;17.00;72.43;99647.75;1813137;77;21046;-75
2022/06/25 02:32:43;;;;;;;7.30;4.90;;;;;;;16.97;72.59;99642.79;1810345;79;21030;-76
2022/06/25 02:35:09;;;;;;;5.20;4.65;;;;;;;16.95;72.69;99640.02;1809249;77;21065;-77
2022/06/25 02:37:36;;;;;;;9.90;4.92;;;;;;;16.93;72.84;99636.20;1810346;77;21193;-77
2022/06/25 02:40:06;;;;;;;5.58;4.97;;;;;;;16.90;72.92;99646.86;1811004;77;21008;-76
2022/06/25 02:42:37;;;;;;;6.10;5.50;;;;;;;16.89;72.97;99636.33;1793468;77;21109;-75
2022/06/25 02:45:05;;;;;;;5.37;4.87;;;;;;;16.90;73.01;99639.30;1782000;78;21459;-75
2022/06/25 02:47:32;;;;;;;4.72;4.33;;;;;;;16.97;73.00;99644.13;1794484;78;21020;-76
2022/06/25 02:50:01;;;;;;;6.35;4.25;;;;;;;17.06;72.79;99636.69;1792974;78;21150;-76
2022/06/25 02:52:30;;;;;;;6.72;4.33;;;;;;;17.11;72.74;99636.84;1764835;80;21005;-76
2022/06/25 02:54:57;;;;;;;5.85;5.20;;;;;;;17.13;72.70;99637.98;1791791;80;21033;-77
2022/06/25 03:00:13;;;;;;;5.03;4.30;;;;;;;17.16;72.65;99641.06;1828293;78;21037;-77
2022/06/25 03:02:43;;;;;;;5.67;4.40;;;;;;;17.20;72.61;99640.94;1826330;78;21073;-78
2022/06/25 03:05:10;;;;;;;7.40;4.33;;;;;;;17.22;72.56;99648.26;1814518;77;21018;-77
2022/06/25 03:07:37;;;;;;;4.97;4.45;;;;;;;17.25;72.47;99648.38;1829566;76;21034;-78
2022/06/25 03:10:05;;;;;;;4.92;4.45;;;;;;;17.28;72.42;99649.27;1816575;76;21539;-77
2022/06/25 03:12:33;;;;;;;6.17;4.30;;;;;;;17.38;72.21;99644.77;1817827;77;21561;-76
2022/06/25 03:15:06;;;;;;;4.85;4.25;;;;;;;17.54;71.95;99655.52;1821549;77;21174;-76
2022/06/25 03:17:33;;;;;;;7.47;4.62;;;;;;;17.60;71.74;99658.72;1811967;76;21566;-76
2022/06/25 03:20:18;;;;;;;6.95;3.77;;;;;;;17.61;71.64;99656.31;1829461;78;21013;-76
2022/06/25 03:22:46;;;;;;;6.60;3.87;;;;;;;17.62;71.51;99656.11;1819058;76;21037;-74
2022/06/25 03:25:13;;;;;;;6.47;4.35;;;;;;;17.64;71.62;99663.43;1825910;78;21092;-77
2022/06/25 03:27:39;;;;;;;4.72;4.10;;;;;;;17.67;71.77;99665.70;1778241;78;21210;-77
2022/06/25 03:30:11;;;;;;;6.15;4.20;;;;;;;17.74;71.72;99662.13;1813908;77;21088;-76
2022/06/25 03:32:39;;;;;;;5.45;4.05;;;;;;;17.78;71.54;99661.47;1805707;78;21017;-76
2022/06/25 03:35:24;;;;;;;5.92;4.20;;;;;;;17.81;71.49;99662.39;1824514;76;21022;-76
2022/06/25 03:37:52;;;;;;;7.03;3.92;;;;;;;17.92;71.21;99658.20;1806683;76;21080;-78
2022/06/25 03:40:19;;;;;;;5.40;3.90;;;;;;;18.05;70.53;99654.06;1827088;76;21308;-78
2022/06/25 03:42:47;;;;;;;8.85;4.37;;;;;;;18.13;70.00;99657.00;1827454;76;21127;-76
2022/06/25 03:45:15;;;;;;;4.53;3.83;;;;;;;18.20;69.43;99656.96;1828630;76;21053;-77
2022/06/25 03:47:49;;;;;;;5.58;4.75;;;;;;;18.28;69.11;99662.05;1814100;76;21069;-75
2022/06/25 03:50:10;;;;;;;6.97;3.72;;;;;;;18.37;68.55;99662.58;1827051;78;21537;-77
2022/06/25 03:52:37;;;;;;;5.55;4.05;;;;;;;18.44;68.38;99659.31;1829923;78;21521;-76
2022/06/25 03:55:04;;;;;;;4.85;3.65;;;;;;;18.51;68.13;99657.39;1820507;76;21001;-77
2022/06/25 03:57:31;;;;;;;5.25;4.05;;;;;;;18.61;68.22;99660.92;1815839;76;21002;-77
2022/06/25 04:00:00;;;;;;;5.25;4.30;;;;;;;18.67;68.42;99666.22;1764145;80;21015;-76
2022/06/25 04:02:29;;;;;;;4.45;4.05;;;;;;;18.71;68.44;99676.02;1793222;79;21088;-77
2022/06/25 04:05:07;;;;;;;6.62;4.62;;;;;;;18.76;68.32;99676.17;1752065;80;21206;-76
2022/06/25 04:07:34;;;;;;;5.75;4.33;;;;;;;18.83;68.12;99681.01;1809900;79;20989;-75
2022/06/25 04:10:00;;;;;;;5.17;3.62;;;;;;;18.92;67.64;99683.39;1785522;80;22106;-75
2022/06/25 04:12:28;;;;;;;7.47;4.60;;;;;;;18.99;67.11;99679.58;1810759;79;21070;-76
2022/06/25 04:14:55;;;;;;;5.45;3.65;;;;;;;19.07;66.89;99682.49;1774237;80;21041;-79
2022/06/25 04:17:22;;;;;;;5.92;4.20;;;;;;;19.15;66.51;99680.83;1797690;77;21089;-75
2022/06/25 04:19:49;;;;;;;7.17;4.70;;;;;;;19.23;66.27;99683.21;1782263;79;21408;-76
2022/06/25 04:22:16;;;;;;;4.10;3.62;;;;;;;19.31;66.05;99683.42;1790948;79;21073;-76
2022/06/25 04:24:43;;;;;;;5.17;3.55;;;;;;;19.39;65.96;99687.18;1762318;80;21046;-76
2022/06/25 04:29:03;;;;;;;5.15;4.40;;;;;;;19.48;65.67;99684.98;1787692;80;21007;-76
2022/06/25 04:29:38;;;;;;;4.30;3.90;;;;;;;19.57;65.20;99697.63;1789440;80;21135;-75
2022/06/25 04:32:07;;;;;;;5.50;3.92;;;;;;;19.64;64.97;99697.83;1786315;80;21042;-76
2022/06/25 04:34:51;;;;;;;6.50;4.58;;;;;;;19.75;64.61;99697.58;1757311;78;21041;-77
2022/06/25 04:37:19;;;;;;;8.85;3.65;;;;;;;19.89;64.38;99700.09;1810395;77;21028;-76
2022/06/25 04:39:45;;;;;;;7.97;3.80;;;;;;;20.02;64.19;99698.55;1796460;77;21043;-76
2022/06/25 04:42:11;;;;;;;3.95;3.55;;;;;;;20.17;63.97;99698.92;1808230;79;21106;-77
2022/06/25 04:44:38;;;;;;;5.53;3.65;;;;;;;20.32;63.45;99705.23;1803931;77;21122;-74
2022/06/25 04:47:05;;;;;;;5.08;3.58;;;;;;;20.45;62.96;99696.06;1804124;77;21091;-75
2022/06/25 04:49:36;;;;;;;6.55;3.52;;;;;;;20.58;62.50;99703.94;1809434;79;21032;-77
2022/06/25 04:52:04;;;;;;;6.37;4.20;;;;;;;20.73;62.13;99706.73;1801739;79;21083;-78
2022/06/25 04:54:30;;;;;;;6.50;3.98;;;;;;;20.89;61.71;99702.49;1783443;79;21094;-79
2022/06/25 04:56:58;;;;;;;4.12;3.80;;;;;;;21.07;61.29;99704.21;1795067;77;21547;-75
2022/06/25 04:59:25;;;;;;;4.00;3.60;;;;;;;21.23;61.15;99704.84;1807203;77;21038;-76
2022/06/25 05:02:08;;;;;;;6.75;4.87;;;;;;;21.38;60.67;99711.90;1815253;77;21106;-79
2022/06/25 05:04:40;;;;;;;4.22;3.80;;;;;;;21.51;60.22;99711.34;1811562;77;21026;-78
2022/06/25 05:07:06;;;;;;;4.15;3.72;;;;;;;21.60;60.02;99713.42;1776765;78;21627;-78
2022/06/25 05:09:33;;;;;;;6.97;3.95;;;;;;;21.70;59.47;99710.63;1826277;76;21002;-78
2022/06/25 05:12:00;;;;;;;4.60;3.65;;;;;;;21.77;59.22;99712.13;1807752;78;22086;-78
2022/06/25 05:14:28;;;;;;;4.55;4.10;;;;;;;21.89;59.13;99715.30;1827542;78;21566;-76
2022/06/25 05:16:56;;;;;;;4.92;3.70;;;;;;;21.98;58.99;99716.52;1823309;76;21038;-75
2022/06/25 05:19:23;;;;;;;4.00;3.65;;;;;;;22.07;58.68;99715.61;1818668;76;21125;-76
2022/06/25 05:21:50;;;;;;;4.22;3.77;;;;;;;22.12;58.43;99711.64;1822612;77;21029;-77
2022/06/25 05:24:16;;;;;;;4.58;3.90;;;;;;;22.20;58.27;99715.30;1822868;77;21072;-78
2022/06/25 05:26:43;;;;;;;4.78;4.03;;;;;;;22.36;58.10;99717.73;1826618;78;21056;-80
2022/06/25 05:29:10;;;;;;;6.58;4.37;;;;;;;22.48;57.89;99715.75;1829899;76;21072;-80
2022/06/25 05:31:36;;;;;;;4.17;3.70;;;;;;;22.58;57.81;99713.77;1828560;78;21073;-80
2022/06/25 05:34:03;;;;;;;6.75;4.50;;;;;;;22.64;57.82;99717.34;1827691;76;21757;-77
2022/06/25 05:36:30;;;;;;;5.25;4.00;;;;;;;22.70;57.74;99718.53;1829270;78;21486;-78
2022/06/25 05:38:56;;;;;;;4.33;3.92;;;;;;;22.75;57.36;99728.09;1825745;76;21012;-78
2022/06/25 05:41:23;;;;;;;5.40;4.20;;;;;;;22.80;57.11;99725.98;1829199;78;21050;-77
2022/06/25 05:43:49;;;;;;;5.45;3.67;;;;;;;22.81;56.78;99726.80;1829589;78;21134;-80
2022/06/25 05:46:16;;;;;;;14.70;13.15;;;;;;;22.79;56.98;99725.69;1827630;76;20994;-79
2022/06/25 05:48:42;;;;;;;4.70;4.25;;;;;;;22.82;57.20;99736.03;1827035;76;21041;-78
2022/06/25 05:51:10;;;;;;;8.95;5.35;;;;;;;22.88;57.29;99732.33;1827803;76;20978;-80
2022/06/25 05:53:38;;;;;;;4.05;3.62;;;;;;;22.92;57.27;99737.52;1833183;76;21009;-83
2022/06/25 05:56:05;;;;;;;6.78;4.30;;;;;;;22.97;57.24;99735.44;1820112;78;21529;-80
2022/06/25 05:58:32;;;;;;;3.70;3.40;;;;;;;23.01;57.34;99734.41;1827215;76;20966;-81
2022/06/25 06:00:59;;;;;;;4.60;3.75;;;;;;;23.04;57.28;99733.92;1832160;78;21057;-83
2022/06/25 06:03:25;;;;;;;7.22;4.28;;;;;;;23.08;57.29;99735.05;1855141;77;21006;-81
2022/06/25 06:05:51;;;;;;;5.70;4.37;;;;;;;23.10;57.17;99736.98;1806050;77;21045;-81
2022/06/25 06:08:18;;;;;;;4.33;3.62;;;;;;;23.12;56.76;99741.61;1825542;76;21265;-81
2022/06/25 06:10:44;;;;;;;6.47;4.53;;;;;;;23.12;56.62;99737.54;1805970;78;21534;-82
2022/06/25 06:13:11;;;;;;;4.10;3.70;;;;;;;23.12;56.69;99745.67;1810201;77;21007;-81
2022/06/25 06:15:37;;;;;;;4.05;3.70;;;;;;;23.16;56.50;99744.13;1825186;76;21108;-82
2022/06/25 06:18:04;;;;;;;5.30;3.90;;;;;;;23.20;56.28;99740.35;1826702;76;21029;-81
2022/06/25 06:20:30;;;;;;;5.00;3.92;;;;;;;23.25;56.27;99740.42;1826276;76;21204;-80
2022/06/25 06:22:57;;;;;;;4.90;3.60;;;;;;;23.26;56.32;99734.77;1822332;77;21064;-78
2022/06/25 06:25:24;;;;;;;3.90;3.52;;;;;;;23.35;56.13;99731.91;1808026;76;21117;-81
2022/06/25 06:27:50;;;;;;;4.78;4.00;;;;;;;23.41;56.24;99731.94;1815238;76;21057;-78
2022/06/25 06:30:17;;;;;;;7.12;3.87;;;;;;;23.46;56.07;99726.59;1824100;78;21124;-79
2022/06/25 06:32:43;;;;;;;5.25;3.92;;;;;;;23.51;55.80;99725.30;1826387;76;21260;-80
2022/06/25 06:35:10;;;;;;;5.67;3.60;;;;;;;23.58;55.65;99727.27;1822438;76;21603;-81
2022/06/25 06:37:36;;;;;;;5.55;4.22;;;;;;;23.64;55.52;99721.36;1826055;76;21946;-80
2022/06/25 06:40:05;;;;;;;5.33;4.03;;;;;;;23.68;55.24;99717.05;1820771;78;21549;-77
2022/06/25 06:42:32;;;;;;;5.05;4.22;;;;;;;23.72;54.93;99724.45;1828505;78;20994;-82
2022/06/25 06:45:00;;;;;;;3.77;3.42;;;;;;;23.76;54.53;99723.41;1820752;77;21136;-80
2022/06/25 06:47:27;;;;;;;4.80;3.65;;;;;;;23.79;53.96;99721.55;1811456;76;21105;-78
2022/06/25 06:49:53;;;;;;;4.70;4.15;;;;;;;23.83;53.72;99728.64;1821552;76;21022;-81
2022/06/25 06:52:21;;;;;;;4.10;3.67;;;;;;;23.88;53.70;99732.77;1824644;76;22138;-81
2022/06/25 06:54:48;;;;;;;4.00;3.70;;;;;;;23.94;53.60;99735.27;1829500;78;21058;-83
2022/06/25 06:57:15;;;;;;;3.95;3.55;;;;;;;23.99;53.45;99729.09;1824334;77;21276;-80
2022/06/25 06:59:42;;;;;;;4.67;3.58;;;;;;;24.05;52.80;99731.28;1826673;77;21042;-81
2022/06/25 07:02:08;;;;;;;5.28;3.50;;;;;;;24.05;52.92;99733.48;1775966;78;21007;-81
2022/06/25 07:04:35;;;;;;;5.20;3.50;;;;;;;24.07;52.96;99738.66;1827339;76;21033;-81
2022/06/25 07:07:01;;;;;;;3.58;3.27;;;;;;;24.07;53.08;99737.30;1827949;76;21069;-81
2022/06/25 07:09:28;;;;;;;4.20;3.80;;;;;;;24.09;53.26;99735.95;1823296;76;21763;-82
2022/06/25 07:14:34;;;;;;;3.95;3.65;;;;;;;24.25;52.81;99739.62;1852328;75;22806;-80
2022/06/25 07:17:00;;;;;;;5.40;3.70;;;;;;;24.28;52.98;99737.75;1823420;77;20953;-81
2022/06/25 07:19:27;;;;;;;4.37;3.67;;;;;;;24.41;52.76;99743.27;1822638;77;21040;-81
2022/06/25 07:21:54;;;;;;;8.03;3.60;;;;;;;24.51;52.45;99737.97;1819598;77;21012;-80
2022/06/25 07:24:21;;;;;;;3.70;3.20;;;;;;;24.60;51.97;99734.21;1809047;77;21032;-84
2022/06/25 07:26:48;;;;;;;3.72;3.42;;;;;;;24.65;51.42;99731.55;1827198;75;21038;-83
2022/06/25 07:29:15;;;;;;;3.00;2.70;;;;;;;24.69;51.00;99729.13;1817713;77;20975;-83
2022/06/25 07:31:43;;;;;;;3.70;3.40;;;;;;;24.71;50.57;99733.20;1830596;77;21935;-82
2022/06/25 07:34:09;;;;;;;4.50;3.65;;;;;;;24.76;50.33;99731.59;1809602;77;20961;-83
2022/06/25 07:36:37;;;;;;;4.22;3.50;;;;;;;24.81;50.43;99724.30;1822624;77;21040;-82
2022/06/25 07:39:03;;;;;;;4.37;3.42;;;;;;;24.89;49.73;99732.49;1829676;77;21035;-84
2022/06/25 07:41:32;;;;;;;3.95;3.50;;;;;;;24.97;49.44;99721.13;1825132;77;21018;-79
2022/06/25 07:43:58;;;;;;;4.35;3.10;;;;;;;25.07;48.97;99731.22;1824467;77;21553;-81
2022/06/25 07:46:25;;;;;;;4.37;3.02;;;;;;;25.12;49.19;99729.91;1802784;77;21032;-81
2022/06/25 07:48:51;;;;;;;5.22;3.00;;;;;;;25.15;48.74;99732.10;1824056;77;21114;-83
2022/06/25 07:54:03;;;;;;;5.00;3.00;;;;;;;25.19;48.67;99733.20;1805600;77;21044;-83
2022/06/25 07:56:29;;;;;;;5.60;3.20;;;;;;;25.27;48.52;99723.20;1822485;77;21336;-83
2022/06/25 07:58:56;;;;;;;4.08;3.67;;;;;;;25.39;48.38;99731.12;1822468;77;21467;-81
2022/06/25 08:01:22;;;;;;;4.83;3.25;;;;;;;25.53;48.33;99727.91;1824892;77;21113;-83
2022/06/25 08:03:49;;;;;;;3.22;3.02;;;;;;;25.63;48.00;99735.58;1824425;77;21083;-81
2022/06/25 08:06:16;;;;;;;3.42;3.12;;;;;;;25.73;47.78;99733.42;1805856;78;21091;-79
2022/06/25 08:08:42;;;;;;;4.85;3.42;;;;;;;25.83;47.81;99742.95;1834365;77;21213;-82
2022/06/25 08:11:09;;;;;;;3.30;2.67;;;;;;;25.95;47.44;99746.81;1824313;78;21048;-79
2022/06/25 08:13:37;;;;;;;3.17;2.95;;;;;;;26.09;47.27;99737.02;1804305;77;20945;-80
2022/06/25 08:16:05;;;;;;;4.10;3.17;;;;;;;26.25;46.31;99741.11;1821880;77;21014;-82
2022/06/25 08:18:32;;;;;;;5.72;3.45;;;;;;;26.38;46.30;99735.13;1818237;77;20990;-81
2022/06/25 08:21:00;;;;;;;4.20;2.98;;;;;;;26.54;45.98;99744.13;1810850;78;21113;-82
2022/06/25 08:23:27;;;;;;;2.90;2.70;;;;;;;26.70;45.58;99735.41;1821800;77;21108;-82
2022/06/25 08:25:53;;;;;;;3.35;2.65;;;;;;;26.85;45.67;99741.38;1825011;77;21052;-83
2022/06/25 08:28:20;;;;;;;6.05;3.08;;;;;;;26.99;45.50;99732.08;1839603;77;21062;-83
2022/06/25 08:30:47;;;;;;;4.25;2.87;;;;;;;27.12;45.21;99728.77;1827333;77;21238;-86
2022/06/25 08:33:14;;;;;;;3.30;2.90;;;;;;;27.23;44.73;99733.06;1752741;78;21189;-83
2022/06/25 08:35:42;;;;;;;4.40;2.80;;;;;;;27.30;44.46;99729.27;1761365;79;21080;-83
2022/06/25 08:38:08;;;;;;;4.12;3.00;;;;;;;27.31;44.33;99730.33;1773390;79;21030;-85
2022/06/25 08:40:35;;;;;;;3.92;2.92;;;;;;;27.30;44.35;99736.09;1751244;81;20947;-86
2022/06/25 08:43:04;;;;;;;3.45;3.15;;;;;;;27.32;44.53;99739.35;1763683;76;21028;-87
2022/06/25 08:45:30;;;;;;;3.72;2.92;;;;;;;27.39;43.97;99730.30;1777791;76;21190;-89
2022/06/25 08:47:59;;;;;;;3.22;2.92;;;;;;;27.45;44.10;99736.02;1781462;79;21057;-88
2022/06/25 08:50:26;;;;;;;3.33;3.00;;;;;;;27.53;43.85;99734.62;1782040;79;20947;-88
2022/06/25 08:52:55;;;;;;;3.87;3.00;;;;;;;27.61;43.85;99733.47;1778362;80;21022;-88
2022/06/25 08:55:33;;;;;;;3.35;3.05;;;;;;;27.74;43.78;99733.40;1770954;79;21061;-83
2022/06/25 08:58:00;;;;;;;4.85;3.45;;;;;;;27.89;43.51;99724.30;1767601;79;21573;-83
2022/06/25 09:00:30;;;;;;;3.12;2.80;;;;;;;28.03;43.24;99721.22;1768458;79;21014;-84
2022/06/25 09:02:56;;;;;;;3.87;3.10;;;;;;;28.15;42.67;99717.31;1777702;78;21038;-85
2022/06/25 09:05:37;;;;;;;3.70;3.40;;;;;;;28.13;42.84;99726.34;1778243;78;21037;-83
2022/06/25 09:08:07;;;;;;;3.85;3.27;;;;;;;28.14;42.85;99726.59;1772295;78;21018;-82
2022/06/25 09:10:37;;;;;;;3.85;3.55;;;;;;;28.26;42.52;99728.42;1776887;79;21120;-84
2022/06/25 09:13:07;;;;;;;3.60;2.95;;;;;;;28.37;42.18;99731.30;1766005;78;21188;-84
2022/06/25 09:15:45;;;;;;;3.33;2.98;;;;;;;28.40;41.94;99732.11;1761677;79;21529;-82
2022/06/25 09:18:15;;;;;;;3.87;3.00;;;;;;;28.34;42.31;99732.45;1778226;78;21513;-84
2022/06/25 09:21:08;;;;;;;4.70;3.42;;;;;;;28.26;42.41;99730.31;1795586;78;20996;-85
2022/06/25 09:23:56;;;;;;;2.98;2.72;;;;;;;28.18;42.39;99733.11;1772512;80;21210;-84
2022/06/25 09:26:22;;;;;;;4.37;2.83;;;;;;;28.28;42.59;99727.58;1767134;80;21462;-84
2022/06/25 09:28:49;;;;;;;4.50;3.22;;;;;;;28.70;42.37;99723.94;1772907;79;21212;-84
2022/06/25 09:31:35;;;;;;;5.78;3.25;;;;;;;29.25;41.90;99714.87;1754592;80;20981;-84
2022/06/25 09:34:03;;;;;;;4.83;3.08;;;;;;;29.91;41.04;99714.51;1783725;79;21088;-86
2022/06/25 09:36:31;;;;;;;4.08;3.00;;;;;;;30.64;40.00;99721.81;1773482;79;21168;-84
2022/06/25 09:38:58;;;;;;;3.65;3.33;;;;;;;31.18;39.32;99724.08;1781415;79;21017;-85
2022/06/25 09:41:24;;;;;;;6.05;2.92;;;;;;;31.56;38.51;99721.92;1783225;78;20981;-84
2022/06/25 09:43:51;;;;;;;4.35;2.95;;;;;;;31.89;38.03;99723.92;1776103;80;21021;-88
2022/06/25 09:46:18;;;;;;;3.15;2.95;;;;;;;32.11;37.79;99720.39;1761965;80;21177;-84
2022/06/25 09:48:45;;;;;;;3.95;3.10;;;;;;;32.45;37.44;99714.04;1771719;81;21410;-87
2022/06/25 09:51:20;;;;;;;3.62;3.33;;;;;;;32.64;37.03;99716.03;1776250;80;21060;-86
2022/06/25 09:53:55;;;;;;;4.28;3.55;;;;;;;32.73;36.69;99715.28;1787942;78;21040;-86
2022/06/25 09:56:28;;;;;;;4.37;3.72;;;;;;;32.47;36.76;99725.53;1777695;78;21034;-86
2022/06/25 09:58:55;;;;;;;3.58;3.02;;;;;;;32.38;36.96;99721.95;1771515;78;21136;-85
2022/06/25 10:01:25;;;;;;;3.98;3.20;;;;;;;32.59;36.59;99720.85;1777710;78;21072;-87
2022/06/25 10:03:52;;;;;;;3.27;3.00;;;;;;;32.98;36.36;99724.77;1769697;78;21558;-85
2022/06/25 10:06:20;;;;;;;5.42;3.30;;;;;;;33.29;35.54;99720.58;1766145;80;21072;-85
2022/06/25 10:08:49;;;;;;;3.58;3.20;;;;;;;33.32;35.34;99727.37;1755207;78;20974;-83
2022/06/25 10:11:24;;;;;;;3.20;2.98;;;;;;;33.20;35.64;99726.63;1777228;78;21116;-81
2022/06/25 10:13:51;;;;;;;3.65;3.35;;;;;;;33.07;35.75;99720.91;1786996;78;21127;-82
2022/06/25 10:16:23;;;;;;;3.83;3.58;;;;;;;32.82;36.09;99714.73;1794645;78;21060;-83
2022/06/25 10:18:50;;;;;;;3.43;3.13;;;;;;;32.74;36.39;99717.69;1764774;80;20954;-83
2022/06/25 10:21:18;;;;;;;3.62;3.33;;;;;;;32.96;36.06;99712.69;1753068;81;21193;-81
2022/06/25 10:23:48;;;;;;;4.37;3.40;;;;;;;33.20;36.07;99708.16;1796798;79;20965;-83
2022/06/25 10:26:15;;;;;;;3.87;3.58;;;;;;;33.57;35.61;99703.77;1790913;79;21168;-80
2022/06/25 10:28:41;;;;;;;3.70;3.27;;;;;;;33.74;35.29;99701.05;1746697;80;21090;-81
2022/06/25 10:31:13;;;;;;;4.72;3.35;;;;;;;33.83;35.38;99700.48;1789353;79;21460;-82
2022/06/25 10:34:02;;;;;;;3.47;3.17;;;;;;;33.99;35.20;99699.98;1791445;79;21000;-82
2022/06/25 10:36:52;;;;;;;7.60;3.55;;;;;;;34.36;34.82;99703.19;1772419;78;21084;-81
2022/06/25 10:39:33;;;;;;;6.47;3.80;;;;;;;34.93;34.26;99705.59;1787938;79;21828;-81
2022/06/25 10:45:08;;;;;;;3.45;3.15;;;;;;;35.99;32.83;99709.29;1786020;77;20992;-81
2022/06/25 10:47:56;;;;;;;3.27;2.98;;;;;;;36.22;32.07;99711.13;1790417;79;21085;-82
2022/06/25 10:50:28;;;;;;;3.60;3.30;;;;;;;36.13;31.65;99713.13;1787715;78;21008;-82
2022/06/25 10:53:06;;;;;;;3.30;3.00;;;;;;;35.69;32.13;99709.37;1741263;81;21035;-81
2022/06/25 10:55:42;;;;;;;3.42;3.12;;;;;;;35.22;32.25;99707.56;1781446;78;21065;-81
2022/06/25 10:58:24;;;;;;;3.62;2.92;;;;;;;34.86;32.49;99706.67;1772566;79;21076;-80
2022/06/25 11:00:57;;;;;;;3.00;2.80;;;;;;;34.49;32.82;99699.99;1778322;79;20973;-79
2022/06/25 11:03:38;;;;;;;3.55;3.20;;;;;;;34.01;32.99;99699.09;1795507;79;21033;-80
2022/06/25 11:06:35;;;;;;;4.20;3.87;;;;;;;33.81;33.64;99703.33;1786388;79;21182;-79
2022/06/25 11:09:11;;;;;;;4.20;3.50;;;;;;;33.82;34.00;99707.14;1756686;79;21036;-81
2022/06/25 11:11:39;;;;;;;3.22;2.98;;;;;;;34.10;33.98;99706.78;1791045;78;21068;-82
2022/06/25 11:14:20;;;;;;;3.47;3.17;;;;;;;34.56;33.61;99701.10;1798918;78;21316;-82
2022/06/25 11:16:46;;;;;;;3.12;2.92;;;;;;;35.17;33.46;99705.57;1759575;80;21478;-80
2022/06/25 11:19:13;;;;;;;6.20;3.00;;;;;;;35.88;32.44;99703.94;1798218;79;21960;-80
2022/06/25 11:21:42;;;;;;;3.30;3.10;;;;;;;36.45;31.83;99703.23;1764940;81;21039;-82
2022/06/25 11:24:24;;;;;;;3.40;3.10;;;;;;;37.05;31.18;99700.86;1790897;78;21105;-81
2022/06/25 11:29:52;;;;;;;3.52;3.20;;;;;;;37.26;29.95;99702.69;1788462;78;21049;-80
2022/06/25 11:32:26;;;;;;;3.35;3.05;;;;;;;36.87;30.39;99704.42;1797979;78;21169;-81
2022/06/25 11:34:56;;;;;;;3.08;2.85;;;;;;;36.96;30.52;99702.35;1796904;78;21016;-82
2022/06/25 11:37:23;;;;;;;6.40;2.67;;;;;;;37.19;30.48;99703.30;1777891;79;21096;-81
2022/06/25 11:39:52;;;;;;;3.45;3.08;;;;;;;37.38;30.18;99704.08;1773187;79;21013;-80
2022/06/25 11:42:19;;;;;;;3.30;3.10;;;;;;;37.29;29.89;99698.66;1788669;79;21108;-82
2022/06/25 11:44:48;;;;;;;3.17;2.87;;;;;;;37.38;29.75;99702.10;1782141;79;21282;-84
2022/06/25 11:47:20;;;;;;;2.90;2.70;;;;;;;37.70;29.17;99698.69;1787347;78;21040;-83
2022/06/25 11:49:47;;;;;;;3.00;2.80;;;;;;;38.11;28.80;99702.23;1802547;79;28494;-80
2022/06/25 11:52:16;;;;;;;3.90;3.45;;;;;;;38.42;28.71;99693.16;1795935;78;21154;-82
2022/06/25 11:54:44;;;;;;;4.17;3.75;;;;;;;38.77;28.52;99692.47;1782778;78;21027;-83
2022/06/25 11:57:20;;;;;;;3.65;3.30;;;;;;;39.07;28.48;99691.41;1767151;81;21166;-80
2022/06/25 11:59:46;;;;;;;4.72;3.42;;;;;;;39.49;28.42;99699.11;1779116;79;21037;-81
2022/06/25 12:02:13;;;;;;;4.17;3.50;;;;;;;39.95;28.11;99690.14;1776817;79;21051;-82